Portada
METAR-TAF:

METAR-TAF

Aeroports :

Manta, Equador

latitud: 00-57S, longitud: 080-41W, altitud: 13 m

Observació

L'informe es va fer fa 1 hora i 6 minuts, a les 22:00 UTC
Vent 10 kt del Oest/Sud-Oest
Temperatura 25°C
Humitat 74%
Pressió 1009 hPa
Visibilitat 10 km o més
Escasses núvols a una alçada de 2300 ft

METAR: SEMT 292200Z 24010KT 9999 FEW023 25/20 Q1009 RMK A2981

Hora: 18:06 (23:06 UTC)

Pronòstic

L'informe es va fer fa 7 hores i 6 minuts, a les 16:00 UTC
Pronòstic vàlid del 29 a les 18 UTC al 30 a les 18 UTC
Vent 8 kt del Oest/Sud-Oest
Visibilitat 10 km o més
Cel ennuvolat a una alçada de 2300 ft
Temporalment
l' 30 a les 06 UTC al 30 a les 10 UTC
Cel cobert a una alçada de 2000 ft

TAF: SEMT 291600Z 2918/3018 24008KT 9999 BKN023 TEMPO 3006/3010 OVC020 TX28/2920Z TN21/3010Z

Observacions i pronòstics meteorològics de més de 4000 aeroports (METAR i TAF).

Les estacions disponibles són els punts grocs i vermells al mapa.

Posi el ratolí al punt desitjat per veure el nom de l'estació.

Feu clic per veure les observacions i els pronòstics meteorològics.

Per canviar el mapa: feu clic els botons verds amb una creu de color negre per apropar; al botó verd amb un guió per allunyar la imatge; o en les fletxes verdes per a mapes adjacents.


METAR-TAF: